createdAt,value
2023-04-27T00:02:09.427Z,10.50
2023-04-27T00:04:37.876Z,10.30
2023-04-27T00:07:05.927Z,9.10
2023-04-27T00:09:33.785Z,9.20
2023-04-27T00:12:01.942Z,9.90
2023-04-27T00:14:29.755Z,10.80
2023-04-27T00:16:57.550Z,9.50
2023-04-27T00:19:25.301Z,10.40
2023-04-27T00:21:53.123Z,10.00
2023-04-27T00:24:21.177Z,10.20
2023-04-27T00:26:48.935Z,9.70
2023-04-27T00:29:16.709Z,9.90
2023-04-27T00:31:44.503Z,9.70
2023-04-27T00:34:12.275Z,10.30
2023-04-27T00:36:40.054Z,9.60
2023-04-27T00:39:08.136Z,9.70
2023-04-27T00:41:42.158Z,9.80
2023-04-27T00:44:09.982Z,10.30
2023-04-27T00:46:37.745Z,9.90
2023-04-27T00:49:05.550Z,10.50
2023-04-27T00:51:33.374Z,11.10
2023-04-27T00:54:01.698Z,9.20
2023-04-27T00:56:29.547Z,9.60
2023-04-27T00:58:57.327Z,10.20
2023-04-27T01:01:25.252Z,9.10
2023-04-27T01:03:53.560Z,10.60
2023-04-27T01:06:21.533Z,10.30
2023-04-27T01:08:49.998Z,9.80
2023-04-27T01:11:17.826Z,9.40
2023-04-27T01:13:46.304Z,10.50
2023-04-27T01:16:14.264Z,9.80
2023-04-27T01:18:42.073Z,9.90
2023-04-27T01:21:10.404Z,10.00
2023-04-27T01:23:38.390Z,10.10
2023-04-27T01:26:06.219Z,10.10
2023-04-27T01:28:33.985Z,11.10
2023-04-27T01:31:01.753Z,10.80
2023-04-27T01:33:29.538Z,11.30
2023-04-27T01:35:57.314Z,10.70
2023-04-27T01:38:25.108Z,11.10
2023-04-27T01:40:55.228Z,9.60
2023-04-27T01:43:23.017Z,10.70
2023-04-27T01:45:50.934Z,9.60
2023-04-27T01:48:18.811Z,9.90
2023-04-27T01:50:46.777Z,9.40
2023-04-27T01:53:14.558Z,9.80
2023-04-27T01:55:42.402Z,9.80
2023-04-27T01:58:10.189Z,9.90
2023-04-27T02:00:38.000Z,9.30
2023-04-27T02:03:06.161Z,9.30
2023-04-27T02:05:34.030Z,9.40
2023-04-27T02:08:01.907Z,9.30
2023-04-27T02:10:29.728Z,9.30
2023-04-27T02:12:57.591Z,8.60
2023-04-27T02:15:25.415Z,9.70
2023-04-27T02:17:53.247Z,8.80
2023-04-27T02:20:21.105Z,9.30
2023-04-27T02:22:48.931Z,9.10
2023-04-27T02:25:17.043Z,9.50
2023-04-27T02:27:44.941Z,9.20
2023-04-27T02:30:13.776Z,9.30
2023-04-27T02:32:42.301Z,9.50
2023-04-27T02:35:10.370Z,9.30
2023-04-27T02:37:38.213Z,9.30
2023-04-27T02:40:08.075Z,8.60
2023-04-27T02:42:35.906Z,8.60
2023-04-27T02:45:05.522Z,8.90
2023-04-27T02:47:33.273Z,8.70
2023-04-27T02:50:01.907Z,9.00
2023-04-27T02:52:29.796Z,8.30
2023-04-27T02:54:57.829Z,8.50
2023-04-27T02:57:25.839Z,8.70
2023-04-27T02:59:53.687Z,8.60
2023-04-27T03:02:21.550Z,8.90
2023-04-27T03:04:55.013Z,9.50
2023-04-27T03:07:23.037Z,8.70
2023-04-27T03:09:51.172Z,9.00
2023-04-27T03:12:19.262Z,8.50
2023-04-27T03:14:47.145Z,9.00
2023-04-27T03:17:15.044Z,8.90
2023-04-27T03:19:42.875Z,8.30
2023-04-27T03:22:10.805Z,8.50
2023-04-27T03:24:38.667Z,8.90
2023-04-27T03:27:06.490Z,9.50
2023-04-27T03:29:34.299Z,10.50
2023-04-27T03:32:04.194Z,9.50
2023-04-27T03:34:32.034Z,9.70
2023-04-27T03:36:59.822Z,9.30
2023-04-27T03:39:27.774Z,9.00
2023-04-27T03:41:55.502Z,9.50
2023-04-27T03:44:24.084Z,8.10
2023-04-27T03:46:51.971Z,8.50
2023-04-27T03:49:19.821Z,8.30
2023-04-27T03:51:47.639Z,8.20
2023-04-27T03:54:15.447Z,8.60
2023-04-27T03:56:44.549Z,8.20
2023-04-27T03:59:13.223Z,8.60
2023-04-27T04:01:41.400Z,8.50
2023-04-27T04:04:09.427Z,9.50
2023-04-27T04:06:37.462Z,9.30
2023-04-27T04:09:05.636Z,8.60
2023-04-27T04:11:33.855Z,9.40
2023-04-27T04:14:01.669Z,7.90
2023-04-27T04:16:29.559Z,8.30
2023-04-27T04:18:57.310Z,8.80
2023-04-27T04:21:25.061Z,8.50
2023-04-27T04:23:52.938Z,8.60
2023-04-27T04:26:23.517Z,8.20
2023-04-27T04:28:52.441Z,8.40
2023-04-27T04:31:21.719Z,8.20
2023-04-27T04:33:49.621Z,8.70
2023-04-27T04:36:17.465Z,8.20
2023-04-27T04:38:45.205Z,8.40
2023-04-27T04:41:13.004Z,8.00
2023-04-27T04:43:40.922Z,7.70
2023-04-27T04:46:08.784Z,8.10
2023-04-27T04:48:36.889Z,8.10
2023-04-27T04:51:07.084Z,8.20
2023-04-27T04:53:34.856Z,8.00
2023-04-27T04:56:13.743Z,8.00
2023-04-27T04:58:41.651Z,8.00
2023-04-27T05:01:09.640Z,8.40
2023-04-27T05:03:37.805Z,8.30
2023-04-27T05:06:06.525Z,8.80
2023-04-27T05:08:34.372Z,8.00
2023-04-27T05:11:02.142Z,8.40
2023-04-27T05:13:29.952Z,7.80
2023-04-27T05:15:57.839Z,8.10
2023-04-27T05:18:25.753Z,8.00
2023-04-27T05:20:53.493Z,7.90
2023-04-27T05:23:21.299Z,7.60
2023-04-27T05:25:49.088Z,8.50
2023-04-27T05:28:16.898Z,7.50
2023-04-27T05:30:44.749Z,7.80
2023-04-27T05:33:12.749Z,7.60
2023-04-27T05:35:40.655Z,7.40
2023-04-27T05:38:08.467Z,7.50
2023-04-27T05:40:36.298Z,7.70
2023-04-27T05:43:05.716Z,7.70
2023-04-27T05:45:33.803Z,7.50
2023-04-27T05:48:01.793Z,8.20
2023-04-27T05:50:29.701Z,6.80
2023-04-27T05:53:01.663Z,7.80
2023-04-27T05:55:29.858Z,7.50
2023-04-27T05:58:06.914Z,6.90
2023-04-27T06:00:37.023Z,7.00
2023-04-27T06:03:05.113Z,7.10
2023-04-27T06:05:34.459Z,7.10
2023-04-27T06:08:02.494Z,6.50
2023-04-27T06:10:30.478Z,7.50
2023-04-27T06:12:58.230Z,7.70
2023-04-27T06:15:26.041Z,6.70
2023-04-27T06:17:53.964Z,7.40
2023-04-27T06:20:22.241Z,6.80
2023-04-27T06:22:50.128Z,5.40
2023-04-27T06:25:18.006Z,6.20
2023-04-27T06:27:45.957Z,5.90
2023-04-27T06:30:14.015Z,7.00
2023-04-27T06:32:41.868Z,6.80
2023-04-27T06:35:10.653Z,6.70
2023-04-27T06:37:39.170Z,6.70
2023-04-27T06:40:08.281Z,6.90
2023-04-27T06:42:36.338Z,6.70
2023-04-27T06:45:05.673Z,6.10
2023-04-27T06:47:33.816Z,6.00
2023-04-27T06:50:01.664Z,6.10
2023-04-27T06:52:33.151Z,5.40
2023-04-27T06:55:01.105Z,4.80
2023-04-27T06:57:29.029Z,5.90
2023-04-27T06:59:57.177Z,5.30
2023-04-27T07:02:25.694Z,5.20
2023-04-27T07:04:53.885Z,4.40
2023-04-27T07:07:22.033Z,4.60
2023-04-27T07:09:50.095Z,5.40
2023-04-27T07:12:17.863Z,4.40
2023-04-27T07:14:45.808Z,4.00
2023-04-27T07:17:13.697Z,4.00
2023-04-27T07:19:41.825Z,4.20
2023-04-27T07:22:10.244Z,4.00
2023-04-27T07:24:38.185Z,4.10
2023-04-27T07:27:07.597Z,4.10
2023-04-27T07:29:38.434Z,4.30
2023-04-27T07:32:08.031Z,3.70
2023-04-27T07:34:52.079Z,4.00
2023-04-27T07:37:22.407Z,4.30
2023-04-27T07:39:53.100Z,3.70
2023-04-27T07:42:22.604Z,3.60
2023-04-27T07:44:54.414Z,3.40
2023-04-27T07:47:22.258Z,3.40
2023-04-27T07:49:50.227Z,3.20
2023-04-27T07:52:18.126Z,2.90
2023-04-27T07:54:45.988Z,2.90
2023-04-27T07:57:13.812Z,3.20
2023-04-27T07:59:41.903Z,3.20
2023-04-27T08:02:19.229Z,3.30
2023-04-27T08:04:49.821Z,3.70
2023-04-27T08:07:18.389Z,3.60
2023-04-27T08:09:46.574Z,3.50
2023-04-27T08:12:14.440Z,3.70
2023-04-27T08:14:42.554Z,4.00
2023-04-27T08:17:11.429Z,3.40
2023-04-27T08:19:39.969Z,3.10
2023-04-27T08:22:08.546Z,2.90
2023-04-27T08:24:36.528Z,3.10
2023-04-27T08:27:06.066Z,2.90
2023-04-27T08:29:34.681Z,2.60
2023-04-27T08:32:04.561Z,2.80
2023-04-27T08:34:35.181Z,2.30
2023-04-27T08:37:04.473Z,2.70
2023-04-27T08:39:32.383Z,2.70
2023-04-27T08:42:00.456Z,2.80
2023-04-27T08:44:28.373Z,2.90
2023-04-27T08:46:56.208Z,2.30
2023-04-27T08:49:24.028Z,2.50
2023-04-27T08:51:51.814Z,2.30
2023-04-27T08:54:19.647Z,2.70
2023-04-27T08:56:47.466Z,3.00
2023-04-27T08:59:16.921Z,2.90
2023-04-27T09:01:48.481Z,2.60
2023-04-27T09:04:17.979Z,2.10
2023-04-27T09:06:46.423Z,2.40
2023-04-27T09:09:25.384Z,2.70
2023-04-27T09:11:53.385Z,2.30
2023-04-27T09:14:23.861Z,2.40
2023-04-27T09:16:59.809Z,2.60
2023-04-27T09:19:29.490Z,2.20
2023-04-27T09:22:11.591Z,2.00
2023-04-27T09:24:50.781Z,2.30
2023-04-27T09:27:22.367Z,2.10
2023-04-27T09:29:50.426Z,2.30
2023-04-27T09:32:20.943Z,2.10
2023-04-27T09:34:48.956Z,2.20
2023-04-27T09:37:16.864Z,2.60
2023-04-27T09:39:45.372Z,2.80
2023-04-27T09:42:13.541Z,2.30
2023-04-27T09:44:41.284Z,2.20
2023-04-27T09:47:10.419Z,2.10
2023-04-27T09:49:38.938Z,2.30
2023-04-27T09:52:06.760Z,2.20
2023-04-27T09:54:34.837Z,2.40
2023-04-27T09:57:32.707Z,2.20
2023-04-27T10:00:13.992Z,2.30
2023-04-27T10:02:53.950Z,1.90
2023-04-27T10:05:40.361Z,2.00
2023-04-27T10:08:09.729Z,2.30
2023-04-27T10:10:48.817Z,1.70
2023-04-27T10:13:24.989Z,2.20
2023-04-27T10:15:53.742Z,2.00
2023-04-27T10:18:31.421Z,1.90
2023-04-27T10:21:11.785Z,2.20
2023-04-27T10:23:51.060Z,2.50
2023-04-27T10:26:27.479Z,2.00
2023-04-27T10:29:09.165Z,2.20
2023-04-27T10:31:44.204Z,2.30
2023-04-27T10:34:21.117Z,1.80
2023-04-27T10:36:49.354Z,1.90
2023-04-27T10:39:19.966Z,2.50
2023-04-27T10:41:52.503Z,2.10
2023-04-27T10:44:30.460Z,2.30
2023-04-27T10:47:01.406Z,1.80
2023-04-27T10:49:30.709Z,2.10
2023-04-27T10:52:00.840Z,2.10
2023-04-27T10:54:29.397Z,1.80
2023-04-27T10:57:10.958Z,2.20
2023-04-27T10:59:54.621Z,2.20
2023-04-27T11:02:27.503Z,2.30
2023-04-27T11:04:56.681Z,2.40
2023-04-27T11:07:26.724Z,2.50
2023-04-27T11:09:55.009Z,2.50
2023-04-27T11:12:24.159Z,2.30
2023-04-27T11:14:58.739Z,2.20
2023-04-27T11:17:30.610Z,2.20
2023-04-27T11:19:58.550Z,2.70
2023-04-27T11:22:26.901Z,2.80
2023-04-27T11:24:54.773Z,2.40
2023-04-27T11:27:24.123Z,3.30
2023-04-27T11:29:52.064Z,2.30
2023-04-27T11:32:21.622Z,2.20
2023-04-27T11:34:54.662Z,2.20
2023-04-27T11:37:26.733Z,2.00
2023-04-27T11:39:54.967Z,1.80
2023-04-27T11:42:25.794Z,1.70
2023-04-27T11:44:59.891Z,1.60
2023-04-27T11:47:30.870Z,2.10
2023-04-27T11:50:01.189Z,2.40
2023-04-27T11:52:33.285Z,2.40
2023-04-27T11:55:04.072Z,2.50
2023-04-27T11:57:36.111Z,2.20
2023-04-27T12:00:14.542Z,2.30
2023-04-27T12:02:44.429Z,2.40
2023-04-27T12:05:13.230Z,2.80
2023-04-27T12:07:42.305Z,2.30
2023-04-27T12:10:10.367Z,2.60
2023-04-27T12:12:38.892Z,2.40
2023-04-27T12:15:08.604Z,2.10
2023-04-27T12:17:36.600Z,2.40
2023-04-27T12:20:06.056Z,2.20
2023-04-27T12:22:33.951Z,2.20
2023-04-27T12:25:01.756Z,2.60
2023-04-27T12:27:29.550Z,2.30
2023-04-27T12:29:59.537Z,2.40
2023-04-27T12:32:28.012Z,2.40
2023-04-27T12:34:55.882Z,1.80
2023-04-27T12:37:25.441Z,2.10
2023-04-27T12:39:54.978Z,2.70
2023-04-27T12:42:24.437Z,2.30
2023-04-27T12:44:53.241Z,2.20
2023-04-27T12:47:42.960Z,2.30
2023-04-27T12:50:10.946Z,2.10
2023-04-27T12:52:38.871Z,2.50
2023-04-27T12:55:13.085Z,2.50
2023-04-27T12:57:49.281Z,2.70
2023-04-27T13:00:17.488Z,2.50
2023-04-27T13:02:46.493Z,2.10
2023-04-27T13:05:14.684Z,1.90
2023-04-27T13:07:42.617Z,2.00
2023-04-27T13:10:12.017Z,2.30
2023-04-27T13:12:40.486Z,1.60
2023-04-27T13:15:09.578Z,1.70
2023-04-27T13:17:37.534Z,2.20
2023-04-27T13:20:07.311Z,1.80
2023-04-27T13:22:35.205Z,2.20
2023-04-27T13:25:03.084Z,1.80
2023-04-27T13:27:30.923Z,2.00
2023-04-27T13:29:58.676Z,2.00
2023-04-27T13:32:26.821Z,1.90
2023-04-27T13:34:54.649Z,1.90
2023-04-27T13:37:23.857Z,1.60
2023-04-27T13:39:51.822Z,2.00
2023-04-27T13:42:19.610Z,2.50
2023-04-27T13:44:47.475Z,2.40
2023-04-27T13:47:15.525Z,2.10
2023-04-27T13:49:43.381Z,2.30
2023-04-27T13:52:11.497Z,2.30
2023-04-27T13:54:39.306Z,2.40
2023-04-27T13:57:07.098Z,2.50
2023-04-27T13:59:34.937Z,2.40
2023-04-27T14:02:03.523Z,2.20
2023-04-27T14:04:32.153Z,3.40
2023-04-27T14:07:00.027Z,2.40
2023-04-27T14:09:28.149Z,2.90
2023-04-27T14:11:57.363Z,2.10
2023-04-27T14:14:25.393Z,3.00
2023-04-27T14:16:53.716Z,2.50
2023-04-27T14:19:21.567Z,2.70
2023-04-27T14:21:50.219Z,2.70
2023-04-27T14:24:18.064Z,2.50
2023-04-27T14:26:47.579Z,2.40
2023-04-27T14:29:15.826Z,2.70
2023-04-27T14:31:46.148Z,2.60
2023-04-27T14:34:17.576Z,2.80
2023-04-27T14:36:46.294Z,2.90
2023-04-27T14:39:14.419Z,2.40
2023-04-27T14:41:42.397Z,2.90
2023-04-27T14:44:10.206Z,3.30
2023-04-27T14:46:38.080Z,3.30
2023-04-27T14:49:05.908Z,2.80
2023-04-27T14:51:33.654Z,3.20
2023-04-27T14:54:02.478Z,3.10
2023-04-27T14:56:30.511Z,3.00
2023-04-27T14:58:58.304Z,2.90
2023-04-27T15:01:26.186Z,3.50
2023-04-27T15:03:55.531Z,3.50
2023-04-27T15:06:27.981Z,2.70
2023-04-27T15:08:56.402Z,2.50
2023-04-27T15:11:24.205Z,2.60
2023-04-27T15:13:52.079Z,2.40
2023-04-27T15:16:20.487Z,2.70
2023-04-27T15:18:48.418Z,2.60
2023-04-27T15:21:16.280Z,3.30
2023-04-27T15:23:44.143Z,3.10
2023-04-27T15:26:11.952Z,2.60
2023-04-27T15:28:39.759Z,2.40
2023-04-27T15:31:08.281Z,2.90
2023-04-27T15:33:36.191Z,3.10
2023-04-27T15:36:04.266Z,3.30
2023-04-27T15:38:32.008Z,2.60
2023-04-27T15:40:59.821Z,2.60
2023-04-27T15:43:27.630Z,2.90
2023-04-27T15:45:55.618Z,2.30
2023-04-27T15:48:23.428Z,3.00
2023-04-27T15:50:51.302Z,2.70
2023-04-27T15:53:19.124Z,2.90
2023-04-27T15:55:46.932Z,2.40
2023-04-27T15:58:16.141Z,2.20
2023-04-27T16:00:44.135Z,2.60
2023-04-27T16:03:14.431Z,2.50
2023-04-27T16:05:42.472Z,2.40
2023-04-27T16:08:12.510Z,2.30
2023-04-27T16:10:40.442Z,2.80
2023-04-27T16:13:08.717Z,2.70
2023-04-27T16:15:36.678Z,2.40
2023-04-27T16:18:04.614Z,2.20
2023-04-27T16:20:33.117Z,7.30
2023-04-27T16:23:03.146Z,3.10
2023-04-27T16:25:31.283Z,2.60
2023-04-27T16:27:59.748Z,11.30
2023-04-27T16:30:29.409Z,4.40
2023-04-27T16:32:57.347Z,10.60
2023-04-27T16:35:25.277Z,16.00
2023-04-27T16:37:54.470Z,8.00
2023-04-27T16:40:22.299Z,3.30
2023-04-27T16:42:50.328Z,3.10
2023-04-27T16:45:18.876Z,2.80
2023-04-27T16:47:47.644Z,2.70
2023-04-27T16:50:15.641Z,3.00
2023-04-27T16:52:43.738Z,3.00
2023-04-27T16:55:11.746Z,3.30
2023-04-27T16:57:39.587Z,3.40
2023-04-27T17:00:09.837Z,3.10
2023-04-27T17:02:38.525Z,3.10
2023-04-27T17:05:07.772Z,3.50
2023-04-27T17:07:35.714Z,3.10
2023-04-27T17:10:05.596Z,2.90
2023-04-27T17:12:33.449Z,3.30
2023-04-27T17:15:02.880Z,3.40
2023-04-27T17:17:35.063Z,3.50
2023-04-27T17:20:03.203Z,2.70
2023-04-27T17:22:32.921Z,3.90
2023-04-27T17:25:00.904Z,3.70
2023-04-27T17:27:33.895Z,2.80
2023-04-27T17:30:01.875Z,2.90
2023-04-27T17:32:29.856Z,2.80
2023-04-27T17:34:57.631Z,3.10
2023-04-27T17:37:25.541Z,2.80
2023-04-27T17:39:54.535Z,3.70
2023-04-27T17:42:22.685Z,3.60
2023-04-27T17:44:50.507Z,3.50
2023-04-27T17:47:22.407Z,3.90
2023-04-27T17:49:50.462Z,4.70
2023-04-27T17:52:20.695Z,4.90
2023-04-27T17:54:48.548Z,6.00
2023-04-27T17:57:16.430Z,5.00
2023-04-27T17:59:45.167Z,5.50
2023-04-27T18:02:16.489Z,5.30
2023-04-27T18:04:44.532Z,5.80
2023-04-27T18:07:12.659Z,6.10
2023-04-27T18:09:40.690Z,6.20
2023-04-27T18:12:11.147Z,7.10
2023-04-27T18:14:39.420Z,7.10
2023-04-27T18:17:07.399Z,8.00
2023-04-27T18:19:35.203Z,8.10
2023-04-27T18:22:03.048Z,10.00
2023-04-27T18:24:31.266Z,8.50
2023-04-27T18:27:00.063Z,7.40
2023-04-27T18:29:28.010Z,7.80
2023-04-27T18:32:01.747Z,7.60
2023-04-27T18:34:29.708Z,8.10
2023-04-27T18:36:57.583Z,8.10
2023-04-27T18:39:27.709Z,8.90
2023-04-27T18:41:57.456Z,8.60
2023-04-27T18:44:25.461Z,7.90
2023-04-27T18:46:53.338Z,9.80
2023-04-27T18:49:21.894Z,11.90
2023-04-27T18:51:49.781Z,18.10
2023-04-27T18:54:17.662Z,14.50
2023-04-27T18:56:45.777Z,13.60
2023-04-27T18:59:13.885Z,15.40
2023-04-27T19:01:42.001Z,16.10
2023-04-27T19:04:10.663Z,16.90
2023-04-27T19:06:38.691Z,17.20
2023-04-27T19:09:06.533Z,16.50
2023-04-27T19:11:34.261Z,17.20
2023-04-27T19:14:02.253Z,19.90
2023-04-27T19:16:30.334Z,20.00
2023-04-27T19:18:58.354Z,19.80
2023-04-27T19:21:26.803Z,18.30
2023-04-27T19:23:54.718Z,17.00
2023-04-27T19:26:22.587Z,12.70
2023-04-27T19:28:50.530Z,11.20
2023-04-27T19:31:18.475Z,10.60
2023-04-27T19:33:47.392Z,9.80
2023-04-27T19:36:23.122Z,10.50
2023-04-27T19:38:51.628Z,11.50
2023-04-27T19:41:19.939Z,11.00
2023-04-27T19:43:49.410Z,11.00
2023-04-27T19:46:17.258Z,12.80
2023-04-27T19:48:45.162Z,12.20
2023-04-27T19:51:12.936Z,11.70
2023-04-27T19:53:40.784Z,11.60
2023-04-27T19:56:08.571Z,13.00
2023-04-27T19:58:37.482Z,16.50
2023-04-27T20:01:06.353Z,17.00
2023-04-27T20:03:53.702Z,17.50
2023-04-27T20:06:28.271Z,16.50
2023-04-27T20:08:56.675Z,18.20
2023-04-27T20:11:25.334Z,19.70
2023-04-27T20:13:53.404Z,20.00
2023-04-27T20:16:25.069Z,22.30
2023-04-27T20:18:52.987Z,25.60
2023-04-27T20:21:21.578Z,27.70
2023-04-27T20:23:49.896Z,30.70
2023-04-27T20:26:17.830Z,27.30
2023-04-27T20:28:45.789Z,22.40
2023-04-27T20:31:16.670Z,18.10
2023-04-27T20:33:47.487Z,17.80
2023-04-27T20:36:18.121Z,16.40
2023-04-27T20:38:46.917Z,16.70
2023-04-27T20:41:15.085Z,15.20
2023-04-27T20:43:44.746Z,15.80
2023-04-27T20:46:13.382Z,16.00
2023-04-27T20:48:41.370Z,15.70
2023-04-27T20:51:09.731Z,16.10
2023-04-27T20:53:38.435Z,17.00
2023-04-27T20:56:07.088Z,17.40
2023-04-27T20:58:35.249Z,17.50
2023-04-27T21:01:03.542Z,17.20
2023-04-27T21:03:31.528Z,18.20
2023-04-27T21:05:59.561Z,17.00
2023-04-27T21:08:28.044Z,17.90
2023-04-27T21:10:57.278Z,17.10
2023-04-27T21:13:25.553Z,18.60
2023-04-27T21:15:53.566Z,19.60
2023-04-27T21:18:29.720Z,19.80
2023-04-27T21:20:58.918Z,19.20
2023-04-27T21:23:27.197Z,19.00
2023-04-27T21:25:55.105Z,20.80
2023-04-27T21:28:23.317Z,21.00
2023-04-27T21:30:51.355Z,33.40
2023-04-27T21:33:19.809Z,27.10
2023-04-27T21:35:48.008Z,22.30
2023-04-27T21:38:16.017Z,20.30
2023-04-27T21:40:43.848Z,20.60
2023-04-27T21:43:11.640Z,18.00
2023-04-27T21:45:39.698Z,17.30
2023-04-27T21:48:07.662Z,15.30
2023-04-27T21:50:35.640Z,18.00
2023-04-27T21:53:03.403Z,18.50
2023-04-27T21:55:31.257Z,19.70
2023-04-27T21:57:59.303Z,19.60
2023-04-27T22:00:27.621Z,20.60
2023-04-27T22:02:57.000Z,18.40
2023-04-27T22:05:29.373Z,19.00
2023-04-27T22:07:57.883Z,19.70
2023-04-27T22:10:25.998Z,18.90
2023-04-27T22:12:54.860Z,20.40
2023-04-27T22:15:23.714Z,21.20
2023-04-27T22:17:51.706Z,19.90
2023-04-27T22:20:19.913Z,18.10
2023-04-27T22:22:48.249Z,17.40
2023-04-27T22:25:16.116Z,21.20
2023-04-27T22:27:45.424Z,20.60
2023-04-27T22:30:14.617Z,18.80
2023-04-27T22:32:42.541Z,17.60
2023-04-27T22:35:24.724Z,19.00
2023-04-27T22:37:57.305Z,18.30
2023-04-27T22:40:25.532Z,20.60
2023-04-27T22:42:55.160Z,21.80
2023-04-27T22:45:23.758Z,23.00
2023-04-27T22:47:51.812Z,21.50
2023-04-27T22:50:19.692Z,19.90
2023-04-27T22:52:48.361Z,21.00
2023-04-27T22:55:16.233Z,19.80
2023-04-27T22:57:44.281Z,19.90
2023-04-27T23:00:12.918Z,19.10
2023-04-27T23:02:41.614Z,18.90
2023-04-27T23:05:10.961Z,20.70
2023-04-27T23:07:41.349Z,21.60
2023-04-27T23:10:10.478Z,21.20
2023-04-27T23:12:38.940Z,24.30
2023-04-27T23:15:07.616Z,35.10
2023-04-27T23:17:35.946Z,40.20
2023-04-27T23:20:26.739Z,41.30
2023-04-27T23:22:56.561Z,38.70
2023-04-27T23:25:24.549Z,37.20
2023-04-27T23:27:53.051Z,37.90
2023-04-27T23:30:22.547Z,37.10
2023-04-27T23:32:50.616Z,38.10
2023-04-27T23:35:18.553Z,35.50
2023-04-27T23:37:46.357Z,34.10
2023-04-27T23:40:14.401Z,34.60
2023-04-27T23:42:42.273Z,36.50
2023-04-27T23:45:10.848Z,38.20
2023-04-27T23:47:38.729Z,37.60
2023-04-27T23:50:07.333Z,34.70
2023-04-27T23:52:35.216Z,36.50
2023-04-27T23:55:03.208Z,33.00
2023-04-27T23:57:31.285Z,35.20
2023-04-27T23:59:59.076Z,34.80
